Warning: Javascript must be enabled to use all the features on this page!


Page Loading - Please Wait...

* We've detected you're using a mobile device. Find our Next Generation Station Page here.
Click to hideNews Bulletins

Peak Streamflow for Idaho

Click to hide state-specific text

USGS 13069500 SNAKE RIVER NR BLACKFOOT ID

Bingham County, Idaho
Hydrologic Unit Code 17040206
Latitude  43°07'31", Longitude 112°31'08" NAD83
Drainage area 11,310  square miles
Contributing drainage area 11,310  square miles
Gage datum 4,400.83 feet above NGVD29
Output formats
Table
Graph
Tab-separated file
peakfq (watstore) format
Reselect output format
Water
Year
Date Gage
Height
(feet)
Stream-
flow
(cfs)
1911 1911-06-22 12.343 32,9001,6
1912 1912-06-16 12.503 34,0001,6
1913 1913-05-31 12.003 32,4001,6
1914 1914-06-08 12.633 35,6006
1915 1915-06-05 8.553 15,8006
1916 1916-06-22 10.403 24,7006
1917 1917-06-22 12.673 36,2006
1918 1918-06-18 14.803 46,2001,6
1919 1919-05-01 8.25 12,1006
1920 1920-05-20 10.153 21,7006
1921 1921-06-01 11.513 28,8001,6
1922 1922-05-28 10.723 25,8006
1923 1923-05-28 9.723 20,5006
1924 1924-06-03 6.763 9,3306
1925 1925-05-24 10.593 24,7006
1926 1926-04-23 7.813 12,8006
1927 1927-07-01 12.623 33,7006
1928 1928-05-31 12.553 33,5006
1929 1929-06-19 9.923 21,4006
1930 1930-04-16 6.323 8,3906
1931 1930-10-13 4.903 4,8006
1932 1932-05-16 8.653 16,4006
1933 1933-06-17 8.243 14,8001,6
1934 1933-12-16 3.803 2,9201,6
1935 1935-06-16 7.073 10,8006
1936 1936-06-04 10.983 25,2006
1937 1937-05-10 7.673 12,6006
1938 1938-07-04 9.583 19,3001,6
1939 1939-05-06 7.803 13,0006
1940 1940-06-09 5.553 6,6206
1941 1941-05-29 6.293 8,4206
1942 1942-04-25 7.803 13,0006
1943 1943-06-25 11.173 25,6006
1944 1944-06-12 9.883 20,6006
1945 1945-06-11 9.313 18,4006
1946 1946-04-29 10.483 23,7006
1947 1947-06-12 10.803 25,0006
1948 1948-06-06 10.523 23,9006
1949 1949-05-22 10.633 24,5006
1950 1950-06-10 11.123 26,3006
1951 1951-05-31 10.343 23,4006
1952 1952-05-07 11.383 28,5006
1953 1953-06-15 9.143 18,8006
1954 1954-06-30 10.443 25,2006
1955 1955-06-19 6.653 10,6006
1956 1956-05-30 11.033 27,3006
1957 1957-05-23 9.623 21,7006
1958 1958-05-13 7.283 13,0006
1959 1959-06-30 6.053 8,8606
1960 1960-08-22 5.003 6,3306
1961 1961-05-21 3.583 3,6706
1962 1962-05-02 8.373 16,0006
1963 1963-06-20 11.12 24,0006
1964 1964-06-22 11.52 24,6006
1965 1965-06-30 9.71 18,3006
1966 1966-05-14 8.65 14,8006
1967 1967-06-16 9.25 16,7006
1968 1968-06-16 10.14 20,1006
1969 1969-04-27 9.84 19,6006
1970 1970-07-01 10.42 21,6006
1971 1971-05-11 11.52 25,9006
1972 1972-06-12 10.31 20,6006
1973 1973-05-28 8.39 14,0006
1974 1974-04-29 11.39 24,1006
1975 1975-05-22 9.98 19,5006
1976 1976-06-07 15.44 53,5003,6
1977 1976-12-25 5.83 6,3506
1978 1978-05-18 8.59 14,8006
1979 1979-05-31 7.19 10,0006
1980 1980-06-08 10.21 20,8006
1981 1981-06-12 10.56 22,6006
1982 1982-05-21 10.31 21,4006
1983 1983-06-15 11.27 26,0006
1984 1984-05-18 12.32 29,4006
1985 1985-05-13 10.09 21,2006
1986 1986-05-08 11.01 24,0006
1987 1987-05-30 6.96 10,9006
1988 1988-07-27 4.52 5,1706
1989 1989-05-14 6.89 10,7006
1990 1990-09-21 5.69 7,6606
1991 1991-06-16 7.77 12,9006
1992 1992-06-18 5.92 8,3406
1993 1993-06-10 9.50 19,0006
1994 1994-05-16 6.41 9,5606
1995 1995-06-09 9.62 19,5006
1996 1996-05-20 10.43 22,5006
1997 1997-06-18 14.80 42,3006
1998 1998-05-25   19,7001,6
1999 1999-06-06   25,9001,6
2000 2000-05-31 6.03 8,6106
2001 2001-09-08 3.85 4,0806
2002 2002-09-10 4.80 5,8606
2003 2003-07-29   7,2001,6
2004 2004-05-25   10,4001,6
2005 2005-06-17 6.14 9,0606
2006 2006-05-03 9.83 20,2006
2007 2007-05-26 5.12 6,7606
2008 2008-06-03 8.48 15,5006
2009 2009-06-25   22,8001,6
2010 2010-06-14 9.75 19,9006
2011 2011-05-29 12.05 28,7006
2012 2012-04-14 7.15 11,9006
2013 2013-05-21 7.45 12,7006
2014 2014-04-26 6.84 11,1006
2015 2015-05-19 7.66 13,3006
2016 2016-05-24 5.67 8,1606
2017 2017-06-17 11.31 25,1006
2018 2018-06-04 10.57 22,2006
2019 2019-04-28 9.82 19,4006
2020 2020-07-02 8.42 14,8006
?
  Peak Gage-Height Qualification Codes.
?
  Peak Streamflow Qualification Codes.